createdAt,value
2023-11-18T00:00:57.036Z,14.52
2023-11-18T00:03:23.602Z,13.27
2023-11-18T00:05:50.093Z,13.63
2023-11-18T00:08:16.639Z,13.95
2023-11-18T00:10:43.928Z,12.63
2023-11-18T00:13:10.455Z,12.65
2023-11-18T00:15:37.137Z,13.38
2023-11-18T00:18:03.806Z,12.48
2023-11-18T00:20:32.033Z,12.23
2023-11-18T00:22:58.857Z,13.15
2023-11-18T00:25:25.500Z,12.38
2023-11-18T00:27:51.998Z,12.90
2023-11-18T00:30:18.638Z,12.25
2023-11-18T00:32:45.347Z,12.02
2023-11-18T00:35:12.162Z,12.20
2023-11-18T00:37:38.726Z,13.10
2023-11-18T00:40:05.975Z,11.85
2023-11-18T00:42:32.434Z,12.40
2023-11-18T00:44:58.893Z,12.15
2023-11-18T00:47:25.431Z,12.93
2023-11-18T00:49:53.728Z,13.15
2023-11-18T00:52:20.476Z,12.32
2023-11-18T00:54:47.038Z,11.32
2023-11-18T00:57:13.519Z,11.27
2023-11-18T00:59:44.447Z,10.88
2023-11-18T01:02:11.053Z,11.27
2023-11-18T01:04:37.572Z,10.68
2023-11-18T01:07:04.307Z,10.88
2023-11-18T01:09:34.549Z,10.88
2023-11-18T01:12:08.056Z,10.70
2023-11-18T01:14:37.330Z,10.60
2023-11-18T01:17:10.247Z,11.27
2023-11-18T01:19:36.743Z,10.23
2023-11-18T01:22:06.965Z,11.40
2023-11-18T01:24:34.405Z,9.80
2023-11-18T01:27:00.844Z,10.48
2023-11-18T01:29:27.942Z,10.25
2023-11-18T01:31:56.380Z,10.27
2023-11-18T01:34:23.532Z,10.30
2023-11-18T01:36:50.682Z,10.15
2023-11-18T01:39:18.787Z,9.75
2023-11-18T01:41:46.514Z,9.63
2023-11-18T01:44:15.890Z,10.18
2023-11-18T01:46:45.935Z,9.15
2023-11-18T01:49:14.827Z,9.20
2023-11-18T01:51:42.831Z,9.45
2023-11-18T01:54:09.320Z,8.75
2023-11-18T01:56:35.821Z,9.38
2023-11-18T01:59:05.397Z,9.32
2023-11-18T02:01:32.522Z,9.40
2023-11-18T02:04:00.206Z,9.00
2023-11-18T02:06:27.983Z,9.18
2023-11-18T02:08:54.619Z,9.43
2023-11-18T02:11:44.012Z,9.20
2023-11-18T02:14:14.185Z,8.77
2023-11-18T02:16:41.081Z,9.18
2023-11-18T02:19:17.871Z,8.85
2023-11-18T02:21:44.904Z,8.98
2023-11-18T02:24:11.392Z,8.38
2023-11-18T02:26:37.839Z,8.43
2023-11-18T02:29:05.721Z,8.20
2023-11-18T02:31:34.974Z,8.68
2023-11-18T02:34:16.719Z,8.18
2023-11-18T02:36:46.485Z,8.50
2023-11-18T02:39:22.890Z,7.82
2023-11-18T02:41:50.281Z,7.63
2023-11-18T02:44:18.813Z,7.22
2023-11-18T02:46:45.285Z,8.15
2023-11-18T02:49:11.786Z,7.70
2023-11-18T02:51:40.480Z,8.35
2023-11-18T02:54:07.648Z,8.55
2023-11-18T02:56:34.145Z,7.50
2023-11-18T02:59:01.893Z,8.02
2023-11-18T03:01:28.713Z,7.60
2023-11-18T03:03:55.960Z,7.78
2023-11-18T03:06:23.238Z,7.60
2023-11-18T03:08:49.918Z,7.30
2023-11-18T03:11:16.366Z,7.50
2023-11-18T03:13:42.951Z,7.72
2023-11-18T03:16:12.393Z,7.75
2023-11-18T03:18:40.589Z,7.97
2023-11-18T03:21:16.798Z,7.43
2023-11-18T03:23:43.537Z,7.50
2023-11-18T03:26:11.284Z,6.97
2023-11-18T03:28:38.702Z,8.25
2023-11-18T03:31:05.805Z,7.00
2023-11-18T03:33:32.664Z,7.10
2023-11-18T03:35:59.416Z,6.88
2023-11-18T03:38:26.021Z,7.30
2023-11-18T03:40:53.293Z,7.25
2023-11-18T03:43:20.882Z,6.35
2023-11-18T03:45:48.218Z,7.53
2023-11-18T03:48:19.590Z,6.65
2023-11-18T03:50:46.057Z,6.75
2023-11-18T03:53:12.603Z,6.13
2023-11-18T03:55:39.159Z,6.18
2023-11-18T03:58:05.680Z,6.32
2023-11-18T04:00:33.690Z,6.07
2023-11-18T04:03:00.462Z,6.28
2023-11-18T04:05:27.005Z,6.32
2023-11-18T04:07:53.545Z,6.45
2023-11-18T04:10:21.510Z,6.53
2023-11-18T04:12:49.149Z,6.32
2023-11-18T04:15:16.514Z,6.40
2023-11-18T04:17:45.148Z,5.88
2023-11-18T04:20:12.311Z,6.22
2023-11-18T04:22:40.842Z,5.78
2023-11-18T04:25:11.644Z,6.15
2023-11-18T04:27:38.834Z,6.25
2023-11-18T04:30:05.954Z,5.95
2023-11-18T04:32:34.101Z,5.90
2023-11-18T04:35:08.184Z,5.88
2023-11-18T04:37:37.924Z,5.93
2023-11-18T04:40:05.016Z,6.57
2023-11-18T04:42:31.803Z,6.07
2023-11-18T04:44:58.708Z,5.82
2023-11-18T04:47:28.595Z,6.00
2023-11-18T04:49:55.348Z,6.60
2023-11-18T04:52:21.827Z,5.53
2023-11-18T04:54:51.606Z,5.93
2023-11-18T04:57:18.072Z,5.60
2023-11-18T04:59:44.767Z,5.60
2023-11-18T05:02:11.359Z,5.40
2023-11-18T05:04:37.929Z,5.32
2023-11-18T05:07:05.335Z,5.50
2023-11-18T05:09:32.303Z,5.53
2023-11-18T05:11:59.764Z,5.85
2023-11-18T05:14:27.416Z,5.47
2023-11-18T05:16:54.636Z,5.28
2023-11-18T05:19:21.457Z,4.95
2023-11-18T05:21:50.662Z,5.88
2023-11-18T05:24:17.383Z,5.05
2023-11-18T05:26:43.917Z,5.45
2023-11-18T05:29:11.183Z,5.35
2023-11-18T05:31:38.453Z,5.30
2023-11-18T05:34:05.787Z,5.82
2023-11-18T05:36:38.209Z,4.93
2023-11-18T05:39:06.136Z,4.80
2023-11-18T05:41:33.295Z,5.00
2023-11-18T05:43:59.914Z,4.70
2023-11-18T05:46:27.260Z,5.90
2023-11-18T05:48:54.062Z,5.15
2023-11-18T05:51:30.295Z,5.20
2023-11-18T05:53:56.844Z,5.28
2023-11-18T05:56:24.041Z,4.90
2023-11-18T05:58:51.389Z,4.85
2023-11-18T06:01:18.054Z,4.85
2023-11-18T06:03:44.716Z,5.28
2023-11-18T06:06:12.585Z,4.28
2023-11-18T06:08:42.888Z,4.65
2023-11-18T06:11:16.564Z,4.80
2023-11-18T06:13:44.561Z,4.90
2023-11-18T06:16:15.170Z,4.68
2023-11-18T06:18:43.604Z,4.55
2023-11-18T06:21:21.001Z,4.78
2023-11-18T06:23:50.945Z,4.40
2023-11-18T06:26:17.751Z,4.65
2023-11-18T06:28:45.976Z,4.25
2023-11-18T06:31:12.885Z,4.57
2023-11-18T06:33:46.034Z,4.55
2023-11-18T06:36:15.819Z,4.15
2023-11-18T06:38:42.623Z,4.90
2023-11-18T06:41:14.201Z,4.50
2023-11-18T06:43:53.237Z,4.00
2023-11-18T06:46:23.446Z,4.68
2023-11-18T06:48:50.497Z,3.95
2023-11-18T06:51:17.125Z,3.88
2023-11-18T06:53:45.407Z,4.22
2023-11-18T06:56:11.891Z,4.30
2023-11-18T06:58:42.138Z,4.45
2023-11-18T07:01:09.219Z,4.32
2023-11-18T07:03:35.715Z,4.43
2023-11-18T07:06:02.263Z,4.07
2023-11-18T07:08:28.762Z,4.88
2023-11-18T07:10:55.416Z,4.95
2023-11-18T07:13:24.100Z,4.32
2023-11-18T07:15:51.366Z,4.20
2023-11-18T07:18:18.730Z,4.35
2023-11-18T07:20:45.300Z,4.03
2023-11-18T07:23:11.771Z,4.10
2023-11-18T07:25:38.610Z,3.70
2023-11-18T07:28:06.092Z,3.65
2023-11-18T07:30:32.525Z,3.63
2023-11-18T07:33:01.720Z,3.33
2023-11-18T07:35:28.230Z,3.63
2023-11-18T07:37:54.685Z,4.22
2023-11-18T07:40:29.037Z,3.63
2023-11-18T07:43:02.681Z,4.03
2023-11-18T07:45:29.901Z,3.55
2023-11-18T07:47:56.409Z,3.40
2023-11-18T07:50:22.902Z,3.35
2023-11-18T07:52:52.361Z,3.15
2023-11-18T07:55:19.480Z,3.65
2023-11-18T07:57:46.083Z,3.65
2023-11-18T08:00:16.162Z,3.50
2023-11-18T08:02:42.679Z,4.05
2023-11-18T08:05:10.614Z,3.70
2023-11-18T08:07:37.162Z,3.78
2023-11-18T08:10:06.648Z,3.50
2023-11-18T08:12:33.472Z,3.70
2023-11-18T08:15:00.981Z,3.42
2023-11-18T08:17:27.654Z,4.03
2023-11-18T08:19:54.251Z,3.50
2023-11-18T08:22:23.965Z,3.78
2023-11-18T08:24:50.993Z,3.60
2023-11-18T08:27:17.745Z,3.97
2023-11-18T08:29:44.383Z,3.58
2023-11-18T08:32:10.874Z,3.55
2023-11-18T08:34:38.824Z,3.55
2023-11-18T08:37:05.804Z,3.35
2023-11-18T08:39:33.153Z,3.67
2023-11-18T08:41:59.774Z,3.58
2023-11-18T08:44:26.237Z,3.25
2023-11-18T08:46:53.171Z,3.70
2023-11-18T08:49:22.680Z,3.35
2023-11-18T08:51:50.440Z,3.17
2023-11-18T08:54:37.869Z,3.33
2023-11-18T08:57:24.377Z,4.05
2023-11-18T08:59:51.948Z,3.53
2023-11-18T09:02:18.974Z,3.53
2023-11-18T09:04:45.488Z,3.65
2023-11-18T09:07:12.023Z,3.22
2023-11-18T09:09:40.876Z,3.58
2023-11-18T09:12:09.465Z,3.38
2023-11-18T09:14:35.894Z,3.85
2023-11-18T09:17:03.068Z,3.30
2023-11-18T09:19:30.728Z,2.90
2023-11-18T09:21:57.178Z,3.42
2023-11-18T09:24:26.122Z,3.30
2023-11-18T09:26:52.729Z,3.17
2023-11-18T09:29:19.385Z,4.03
2023-11-18T09:31:49.621Z,3.20
2023-11-18T09:34:18.121Z,4.10
2023-11-18T09:36:44.980Z,3.13
2023-11-18T09:39:29.982Z,3.70
2023-11-18T09:41:57.538Z,3.28
2023-11-18T09:44:28.148Z,3.80
2023-11-18T09:47:05.671Z,3.63
2023-11-18T09:49:39.805Z,3.08
2023-11-18T09:52:07.055Z,4.18
2023-11-18T09:54:39.369Z,3.72
2023-11-18T09:57:20.524Z,3.05
2023-11-18T09:59:56.354Z,3.28
2023-11-18T10:02:26.984Z,3.20
2023-11-18T10:04:58.529Z,3.35
2023-11-18T10:07:27.961Z,3.33
2023-11-18T10:09:58.464Z,3.25
2023-11-18T10:12:27.762Z,3.03
2023-11-18T10:14:54.305Z,2.83
2023-11-18T10:17:23.099Z,3.28
2023-11-18T10:19:53.406Z,2.78
2023-11-18T10:22:30.336Z,2.95
2023-11-18T10:24:57.658Z,3.20
2023-11-18T10:27:26.159Z,3.03
2023-11-18T10:29:59.475Z,2.88
2023-11-18T10:32:28.824Z,2.92
2023-11-18T10:34:59.040Z,3.17
2023-11-18T10:37:26.471Z,3.08
2023-11-18T10:39:52.909Z,3.00
2023-11-18T10:42:19.392Z,3.08
2023-11-18T10:45:06.599Z,3.00
2023-11-18T10:47:42.722Z,3.00
2023-11-18T10:50:11.188Z,3.30
2023-11-18T10:52:41.482Z,3.22
2023-11-18T10:55:14.376Z,3.08
2023-11-18T10:57:42.862Z,3.10
2023-11-18T11:00:20.785Z,3.28
2023-11-18T11:02:51.219Z,2.95
2023-11-18T11:05:34.358Z,2.97
2023-11-18T11:08:01.275Z,2.92
2023-11-18T11:10:29.596Z,3.20
2023-11-18T11:12:56.501Z,2.90
2023-11-18T11:15:44.971Z,2.30
2023-11-18T11:18:28.414Z,2.83
2023-11-18T11:21:06.147Z,2.72
2023-11-18T11:23:44.960Z,2.75
2023-11-18T11:26:24.055Z,2.45
2023-11-18T11:29:20.809Z,2.45
2023-11-18T11:31:52.838Z,2.58
2023-11-18T11:34:24.829Z,2.90
2023-11-18T11:36:52.697Z,2.63
2023-11-18T11:39:26.377Z,2.50
2023-11-18T11:41:55.557Z,2.63
2023-11-18T11:44:22.060Z,3.00
2023-11-18T11:46:54.264Z,3.55
2023-11-18T11:49:28.617Z,2.50
2023-11-18T11:52:00.878Z,2.70
2023-11-18T11:54:37.722Z,2.65
2023-11-18T11:57:06.984Z,2.35
2023-11-18T11:59:47.983Z,2.30
2023-11-18T12:02:17.207Z,2.63
2023-11-18T12:04:47.870Z,2.22
2023-11-18T12:09:45.629Z,2.85
2023-11-18T12:12:20.148Z,2.08
2023-11-18T12:14:54.166Z,2.65
2023-11-18T12:17:23.665Z,2.42
2023-11-18T12:19:51.196Z,2.20
2023-11-18T12:22:19.038Z,2.67
2023-11-18T12:25:08.606Z,2.28
2023-11-18T12:27:41.277Z,3.13
2023-11-18T12:30:17.002Z,2.25
2023-11-18T12:33:11.681Z,2.20
2023-11-18T12:35:39.104Z,2.50
2023-11-18T12:38:21.725Z,2.33
2023-11-18T12:40:53.650Z,2.35
2023-11-18T12:43:20.209Z,2.25
2023-11-18T12:46:01.276Z,2.20
2023-11-18T12:48:28.335Z,2.22
2023-11-18T12:50:56.774Z,2.35
2023-11-18T12:53:25.467Z,2.00
2023-11-18T12:55:53.539Z,2.30
2023-11-18T12:58:20.105Z,1.92
2023-11-18T13:00:47.537Z,2.40
2023-11-18T13:03:16.443Z,2.15
2023-11-18T13:05:44.559Z,2.25
2023-11-18T13:08:11.218Z,2.17
2023-11-18T13:10:37.825Z,2.28
2023-11-18T13:13:06.062Z,2.33
2023-11-18T13:15:32.537Z,2.00
2023-11-18T13:17:59.764Z,2.25
2023-11-18T13:20:27.226Z,2.15
2023-11-18T13:22:56.804Z,1.77
2023-11-18T13:25:24.563Z,2.40
2023-11-18T13:27:51.044Z,1.90
2023-11-18T13:30:19.096Z,1.90
2023-11-18T13:32:45.585Z,1.70
2023-11-18T13:35:14.619Z,2.00
2023-11-18T13:37:42.777Z,1.67
2023-11-18T13:40:09.565Z,1.80
2023-11-18T13:42:38.709Z,1.80
2023-11-18T13:45:12.684Z,1.70
2023-11-18T13:47:39.458Z,1.75
2023-11-18T13:50:10.137Z,2.15
2023-11-18T13:52:38.549Z,2.22
2023-11-18T13:55:09.966Z,1.58
2023-11-18T13:57:36.468Z,1.63
2023-11-18T14:00:06.730Z,1.60
2023-11-18T14:02:34.513Z,1.70
2023-11-18T14:05:01.158Z,2.05
2023-11-18T14:07:28.381Z,1.90
2023-11-18T14:09:57.700Z,1.70
2023-11-18T14:12:26.943Z,1.75
2023-11-18T14:14:54.028Z,2.10
2023-11-18T14:17:20.540Z,2.00
2023-11-18T14:19:47.316Z,1.70
2023-11-18T14:22:13.927Z,1.80
2023-11-18T14:24:41.482Z,1.67
2023-11-18T14:27:11.022Z,1.40
2023-11-18T14:29:38.882Z,1.70
2023-11-18T14:32:07.181Z,2.30
2023-11-18T14:34:34.395Z,1.80
2023-11-18T14:37:02.775Z,1.70
2023-11-18T14:39:29.205Z,1.50
2023-11-18T14:41:55.651Z,1.55
2023-11-18T14:44:22.231Z,2.08
2023-11-18T14:46:48.836Z,2.00
2023-11-18T14:49:15.542Z,1.90
2023-11-18T14:51:42.073Z,1.50
2023-11-18T14:54:09.635Z,2.00
2023-11-18T14:56:36.405Z,1.55
2023-11-18T14:59:05.938Z,1.60
2023-11-18T15:01:32.450Z,1.42
2023-11-18T15:03:58.927Z,1.77
2023-11-18T15:06:27.081Z,1.70
2023-11-18T15:08:54.493Z,1.60
2023-11-18T15:11:24.574Z,1.50
2023-11-18T15:13:53.858Z,1.40
2023-11-18T15:16:20.560Z,1.58
2023-11-18T15:18:53.222Z,1.88
2023-11-18T15:21:19.900Z,1.52
2023-11-18T15:23:46.596Z,1.60
2023-11-18T15:26:13.109Z,1.60
2023-11-18T15:28:39.714Z,1.83
2023-11-18T15:31:06.387Z,1.80
2023-11-18T15:33:33.102Z,2.00
2023-11-18T15:35:59.751Z,1.63
2023-11-18T15:38:26.234Z,1.98
2023-11-18T15:40:52.816Z,1.27
2023-11-18T15:43:19.482Z,1.73
2023-11-18T15:45:45.975Z,1.50
2023-11-18T15:48:12.664Z,1.40
2023-11-18T15:50:39.358Z,1.48
2023-11-18T15:53:08.954Z,1.50
2023-11-18T15:55:37.260Z,1.63
2023-11-18T15:58:04.769Z,1.98
2023-11-18T16:00:31.402Z,1.38
2023-11-18T16:03:02.130Z,1.20
2023-11-18T16:05:34.413Z,1.45
2023-11-18T16:08:02.579Z,1.40
2023-11-18T16:10:29.191Z,1.30
2023-11-18T16:12:56.687Z,1.38
2023-11-18T16:15:23.751Z,1.50
2023-11-18T16:17:50.804Z,1.30
2023-11-18T16:20:19.417Z,1.02
2023-11-18T16:22:48.727Z,1.60
2023-11-18T16:25:20.981Z,1.20
2023-11-18T16:30:14.702Z,1.60
2023-11-18T16:32:41.479Z,1.35
2023-11-18T16:35:12.959Z,1.33
2023-11-18T16:37:40.565Z,1.50
2023-11-18T16:40:17.177Z,1.63
2023-11-18T16:42:51.634Z,1.23
2023-11-18T16:45:20.808Z,1.45
2023-11-18T16:47:51.577Z,1.42
2023-11-18T16:50:18.399Z,1.20
2023-11-18T16:52:44.997Z,1.35
2023-11-18T16:55:11.735Z,1.35
2023-11-18T16:57:38.308Z,1.02
2023-11-18T17:00:16.035Z,1.33
2023-11-18T17:02:48.798Z,1.25
2023-11-18T17:05:15.593Z,1.10
2023-11-18T17:07:42.142Z,1.08
2023-11-18T17:10:12.652Z,1.00
2023-11-18T17:12:43.474Z,1.08
2023-11-18T17:15:16.962Z,1.67
2023-11-18T17:17:46.816Z,1.45
2023-11-18T17:20:14.254Z,1.08
2023-11-18T17:22:41.111Z,1.20
2023-11-18T17:25:13.777Z,1.42
2023-11-18T17:27:41.062Z,1.05
2023-11-18T17:30:12.987Z,0.90
2023-11-18T17:32:48.914Z,1.42
2023-11-18T17:35:16.436Z,1.00
2023-11-18T17:37:44.464Z,1.00
2023-11-18T17:40:12.270Z,1.33
2023-11-18T17:42:42.247Z,1.10
2023-11-18T17:45:09.531Z,1.00
2023-11-18T17:47:37.620Z,1.23
2023-11-18T17:50:12.866Z,1.33
2023-11-18T17:52:42.209Z,1.10
2023-11-18T17:55:09.349Z,1.60
2023-11-18T17:57:36.298Z,1.48
2023-11-18T18:00:03.026Z,1.30
2023-11-18T18:02:31.979Z,0.90
2023-11-18T18:04:58.546Z,1.60
2023-11-18T18:07:25.372Z,1.00
2023-11-18T18:09:51.823Z,1.25
2023-11-18T18:12:18.357Z,1.08
2023-11-18T18:14:44.792Z,1.17
2023-11-18T18:17:11.505Z,1.10
2023-11-18T18:19:38.353Z,1.13
2023-11-18T18:22:04.864Z,1.15
2023-11-18T18:24:34.159Z,1.20
2023-11-18T18:27:01.166Z,1.00
2023-11-18T18:29:27.688Z,1.30
2023-11-18T18:31:54.548Z,1.25
2023-11-18T18:34:21.011Z,1.17
2023-11-18T18:36:48.063Z,1.17
2023-11-18T18:39:14.675Z,1.58
2023-11-18T18:41:42.335Z,1.20
2023-11-18T18:44:08.875Z,1.25
2023-11-18T18:46:35.357Z,0.90
2023-11-18T18:49:01.938Z,0.90
2023-11-18T18:51:28.944Z,1.50
2023-11-18T18:53:55.503Z,0.93
2023-11-18T18:56:22.097Z,1.60
2023-11-18T18:58:49.428Z,1.27
2023-11-18T19:01:15.924Z,1.27
2023-11-18T19:03:42.532Z,1.13
2023-11-18T19:06:11.836Z,1.38
2023-11-18T19:08:38.535Z,1.13
2023-11-18T19:11:06.075Z,1.42
2023-11-18T19:13:32.647Z,0.90
2023-11-18T19:15:59.113Z,1.02
2023-11-18T19:18:25.726Z,0.98
2023-11-18T19:20:52.293Z,1.27
2023-11-18T19:23:19.718Z,1.00
2023-11-18T19:25:46.269Z,1.10
2023-11-18T19:28:13.254Z,0.90
2023-11-18T19:30:39.815Z,1.02
2023-11-18T19:33:06.409Z,1.33
2023-11-18T19:35:33.004Z,1.15
2023-11-18T19:38:02.058Z,1.23
2023-11-18T19:40:28.650Z,1.17
2023-11-18T19:42:55.327Z,0.80
2023-11-18T19:45:22.806Z,1.15
2023-11-18T19:47:50.342Z,1.10
2023-11-18T19:52:53.037Z,1.20
2023-11-18T19:55:19.870Z,1.05
2023-11-18T19:57:47.760Z,1.27
2023-11-18T20:00:18.178Z,1.02
2023-11-18T20:02:45.534Z,1.05
2023-11-18T20:05:12.374Z,1.17
2023-11-18T20:07:39.719Z,1.02
2023-11-18T20:10:09.174Z,1.00
2023-11-18T20:12:36.089Z,1.45
2023-11-18T20:15:02.665Z,1.10
2023-11-18T20:17:29.139Z,1.20
2023-11-18T20:19:55.666Z,1.00
2023-11-18T20:22:22.207Z,1.05
2023-11-18T20:24:48.705Z,1.40
2023-11-18T20:27:15.181Z,1.00
2023-11-18T20:29:41.745Z,1.10
2023-11-18T20:32:08.962Z,1.15
2023-11-18T20:34:35.692Z,0.82
2023-11-18T20:37:02.147Z,1.05
2023-11-18T20:39:28.912Z,0.90
2023-11-18T20:41:55.570Z,1.25
2023-11-18T20:44:22.265Z,1.15
2023-11-18T20:46:48.953Z,0.90
2023-11-18T20:49:18.152Z,0.60
2023-11-18T20:51:44.942Z,1.23
2023-11-18T20:54:11.383Z,0.98
2023-11-18T20:56:37.896Z,0.90
2023-11-18T20:59:04.820Z,1.00
2023-11-18T21:01:31.510Z,1.13
2023-11-18T21:03:58.104Z,0.85
2023-11-18T21:06:24.822Z,1.45
2023-11-18T21:08:51.619Z,0.80
2023-11-18T21:11:18.388Z,1.27
2023-11-18T21:13:44.931Z,0.82
2023-11-18T21:16:11.479Z,1.10
2023-11-18T21:18:38.153Z,1.20
2023-11-18T21:21:05.921Z,0.80
2023-11-18T21:23:32.408Z,0.75
2023-11-18T21:25:59.121Z,1.05
2023-11-18T21:28:26.224Z,1.10
2023-11-18T21:30:53.468Z,1.00
2023-11-18T21:33:20.611Z,0.90
2023-11-18T21:35:47.110Z,0.90
2023-11-18T21:38:13.627Z,0.85
2023-11-18T21:40:40.222Z,1.00
2023-11-18T21:43:06.674Z,0.75
2023-11-18T21:45:33.184Z,0.95
2023-11-18T21:48:05.203Z,0.93
2023-11-18T21:50:34.168Z,1.13
2023-11-18T21:53:01.891Z,1.20
2023-11-18T21:55:28.383Z,0.77
2023-11-18T21:57:54.918Z,0.85
2023-11-18T22:00:21.499Z,0.65
2023-11-18T22:02:51.258Z,0.82
2023-11-18T22:05:18.488Z,0.90
2023-11-18T22:07:45.068Z,1.08
2023-11-18T22:10:22.233Z,1.10
2023-11-18T22:12:50.086Z,0.95
2023-11-18T22:15:18.410Z,0.85
2023-11-18T22:17:45.187Z,1.00
2023-11-18T22:20:13.316Z,0.60
2023-11-18T22:22:40.042Z,0.70
2023-11-18T22:25:07.902Z,1.02
2023-11-18T22:27:35.238Z,0.88
2023-11-18T22:30:01.881Z,0.80
2023-11-18T22:32:28.435Z,0.95
2023-11-18T22:34:55.391Z,0.47
2023-11-18T22:37:23.304Z,1.10
2023-11-18T22:39:49.800Z,0.80
2023-11-18T22:42:16.651Z,0.82
2023-11-18T22:44:46.405Z,0.77
2023-11-18T22:47:13.499Z,0.90
2023-11-18T22:49:41.688Z,0.93
2023-11-18T22:52:08.943Z,0.80
2023-11-18T22:54:35.636Z,0.98
2023-11-18T22:57:02.476Z,0.80
2023-11-18T22:59:28.970Z,0.88
2023-11-18T23:01:55.492Z,1.05
2023-11-18T23:04:22.666Z,0.75
2023-11-18T23:06:55.667Z,0.70
2023-11-18T23:09:22.680Z,0.77
2023-11-18T23:11:49.213Z,0.80
2023-11-18T23:14:15.811Z,0.65
2023-11-18T23:16:44.261Z,0.80
2023-11-18T23:19:11.867Z,0.80
2023-11-18T23:21:39.095Z,1.00
2023-11-18T23:24:06.697Z,0.60
2023-11-18T23:26:33.232Z,0.93
2023-11-18T23:28:59.690Z,0.70
2023-11-18T23:31:26.419Z,1.00
2023-11-18T23:33:53.135Z,0.60
2023-11-18T23:36:19.631Z,0.75
2023-11-18T23:38:49.792Z,0.82
2023-11-18T23:41:16.512Z,0.68
2023-11-18T23:43:43.049Z,0.68
2023-11-18T23:46:09.656Z,0.90
2023-11-18T23:48:40.320Z,1.10
2023-11-18T23:51:07.220Z,0.65
2023-11-18T23:53:33.714Z,0.90
2023-11-18T23:56:00.488Z,0.80
2023-11-18T23:58:27.016Z,0.80
